Pacific Heron — MTJT5 — position and weather

sailwx.info

Track history (hours):
 
Tides and Currents Weather Stations Pressure Air Temp Water Temp Dewpoint Dewpoint Depression Visibility Wind Speed Wind Dir Waves Ship Positions

Pacific Heron

Last reported at 2016-Jun-23 18:10 UTC. Time now 2016-Jul-02 05:46 UTC.
Position N 54°06' W 003°13'.
Warning: this ship's position is 8 days out of date.

Length 104 m; draft 6 m.

Type: Cargo ship. MMSI: 235056178.

Date/timePositionNaut miles runAvg speedWind from/ knotsBaromVisibWave heightAir tempDewpointWater temp
2016-Jun-23 18:10N 54°06' W 003°13'0 0.0
2016-Jun-23 07:31N 54°06' W 003°13'0 0.0
2016-Jun-23 05:19N 54°06' W 003°13'0 0.0
2016-Jun-23 04:31N 54°06' W 003°13'  
2016-Jun-20 23:22N 54°06' W 003°13'0 0.0
2016-Jun-20 22:16N 54°06' W 003°13'0 0.0
2016-Jun-20 21:31N 54°06' W 003°13'0 0.0
2016-Jun-20 19:34N 54°06' W 003°13'0 0.0
2016-Jun-20 18:31N 54°06' W 003°13'0 0.0
2016-Jun-20 01:16N 54°06' W 003°13'0 0.0
2016-Jun-19 11:27N 54°06' W 003°13'4 1.9
2016-Jun-19 09:23N 54°02' W 003°11'6 0.9
2016-Jun-19 03:27N 53°57' W 003°15'0 0.1
2016-Jun-19 02:33N 53°57' W 003°15'0 0.0
2016-Jun-19 01:27N 53°57' W 003°15'0 0.0
2016-Jun-19 00:30N 53°57' W 003°15'0 0.1
2016-Jun-18 22:12N 53°57' W 003°15'0 0.0
2016-Jun-18 14:14N 53°57' W 003°15'0 0.0
2016-Jun-18 13:32N 53°57' W 003°15'0 0.0
2016-Jun-18 12:32N 53°57' W 003°15'0 0.0
2016-Jun-18 10:26N 53°57' W 003°15'0 0.0
2016-Jun-18 06:23N 53°57' W 003°15'3 4.1
2016-Jun-18 05:33N 53°55' W 003°19'6 5.9
2016-Jun-18 04:33N 53°51' W 003°27'6 5.5
2016-Jun-18 03:33N 53°47' W 003°33'6 6.1
2016-Jun-18 02:33N 53°44' W 003°42'6 5.9
2016-Jun-18 01:33N 53°42' W 003°51'5 5.3
2016-Jun-18 00:33N 53°39' W 003°59'5 5.5
2016-Jun-17 23:33N 53°37' W 004°08'6 6.0
2016-Jun-17 22:33N 53°34' W 004°17'142 6.4
2016-Jun-17 00:21N 51°46' W 006°49'10 7.9
2016-Jun-16 23:08N 51°43' W 007°03'5 8.2
2016-Jun-16 22:33N 51°41' W 007°10'27 8.0
2016-Jun-16 19:11N 51°30' W 007°50'5 8.4
2016-Jun-16 18:33N 51°28' W 007°58'10 9.7
2016-Jun-16 17:33N 51°24' W 008°12'10 9.9
2016-Jun-16 16:33N 51°21' W 008°27'3110.5
2016-Jun-16 13:33N 51°09' W 009°14'1110.7
2016-Jun-16 12:33N 51°05' W 009°30'1313.4
2016-Jun-16 11:33N 51°00' W 009°50'  
Track history (hours):
 
Tides and Currents Weather Stations Pressure Air Temp Water Temp Dewpoint Dewpoint Depression Visibility Wind Speed Wind Dir Waves Ship Positions

Pacific Heron

Last reported at 2016-Jun-23 18:10 UTC. Time now 2016-Jul-02 05:46 UTC.
Position N 54°06' W 003°13'.
Warning: this ship's position is 8 days out of date.

Length 104 m; draft 6 m.

Type: Cargo ship. MMSI: 235056178.

Date/timePositionNaut miles runAvg speedWind from/ knotsBaromVisibWave heightAir tempDewpointWater temp
2016-Jun-23 18:10N 54°06' W 003°13'0 0.0
2016-Jun-23 07:31N 54°06' W 003°13'0 0.0
2016-Jun-23 05:19N 54°06' W 003°13'0 0.0
2016-Jun-23 04:31N 54°06' W 003°13'  
2016-Jun-20 23:22N 54°06' W 003°13'0 0.0
2016-Jun-20 22:16N 54°06' W 003°13'0 0.0
2016-Jun-20 21:31N 54°06' W 003°13'0 0.0
2016-Jun-20 19:34N 54°06' W 003°13'0 0.0
2016-Jun-20 18:31N 54°06' W 003°13'0 0.0
2016-Jun-20 01:16N 54°06' W 003°13'0 0.0
2016-Jun-19 11:27N 54°06' W 003°13'4 1.9
2016-Jun-19 09:23N 54°02' W 003°11'6 0.9
2016-Jun-19 03:27N 53°57' W 003°15'0 0.1
2016-Jun-19 02:33N 53°57' W 003°15'0 0.0
2016-Jun-19 01:27N 53°57' W 003°15'0 0.0
2016-Jun-19 00:30N 53°57' W 003°15'0 0.1
2016-Jun-18 22:12N 53°57' W 003°15'0 0.0
2016-Jun-18 14:14N 53°57' W 003°15'0 0.0
2016-Jun-18 13:32N 53°57' W 003°15'0 0.0
2016-Jun-18 12:32N 53°57' W 003°15'0 0.0
2016-Jun-18 10:26N 53°57' W 003°15'0 0.0
2016-Jun-18 06:23N 53°57' W 003°15'3 4.1
2016-Jun-18 05:33N 53°55' W 003°19'6 5.9
2016-Jun-18 04:33N 53°51' W 003°27'6 5.5
2016-Jun-18 03:33N 53°47' W 003°33'6 6.1
2016-Jun-18 02:33N 53°44' W 003°42'6 5.9
2016-Jun-18 01:33N 53°42' W 003°51'5 5.3
2016-Jun-18 00:33N 53°39' W 003°59'5 5.5
2016-Jun-17 23:33N 53°37' W 004°08'6 6.0
2016-Jun-17 22:33N 53°34' W 004°17'142 6.4
2016-Jun-17 00:21N 51°46' W 006°49'10 7.9
2016-Jun-16 23:08N 51°43' W 007°03'5 8.2
2016-Jun-16 22:33N 51°41' W 007°10'27 8.0
2016-Jun-16 19:11N 51°30' W 007°50'5 8.4
2016-Jun-16 18:33N 51°28' W 007°58'10 9.7
2016-Jun-16 17:33N 51°24' W 008°12'10 9.9
2016-Jun-16 16:33N 51°21' W 008°27'3110.5
2016-Jun-16 13:33N 51°09' W 009°14'1110.7
2016-Jun-16 12:33N 51°05' W 009°30'1313.4
2016-Jun-16 11:33N 51°00' W 009°50'  

Dump ship's entire track history